Time,TemperatureF,DewpointF,PressureIn,WindDirection,WindDirectionDegrees,WindSpeedMPH,WindSpeedGustMPH,Humidity,HourlyPrecipIn,Conditions,Clouds,dailyrainin,SoftwareType,DateUTC
2013-02-14 00:02:00,63.0,-99.9,30.03,North,4,6.0,8.0,-999,-99.99,,,-99.99,,2013-02-14 05:02:00,
2013-02-14 00:11:00,63.0,-99.9,30.04,North,355,4.0,6.0,-999,-99.99,,,-99.99,,2013-02-14 05:11:00,
2013-02-14 00:22:00,63.0,-99.9,30.02,NNE,18,6.0,8.0,-999,-99.99,,,-99.99,,2013-02-14 05:22:00,
2013-02-14 00:32:00,63.0,-99.9,30.02,North,5,5.0,8.0,-999,-99.99,,,-99.99,,2013-02-14 05:32:00,
2013-02-14 00:42:00,64.0,-99.9,30.03,North,7,3.0,7.0,-999,-99.99,,,-99.99,,2013-02-14 05:42:00,
2013-02-14 00:52:00,64.0,-99.9,30.01,NNE,30,2.0,5.0,-999,-99.99,,,-99.99,,2013-02-14 05:52:00,
2013-02-14 01:02:00,64.0,-99.9,30.01,NE,43,4.0,5.0,-999,-99.99,,,-99.99,,2013-02-14 06:02:00,
2013-02-14 01:11:00,64.0,-99.9,30.01,NE,44,3.0,6.0,-999,-99.99,,,-99.99,,2013-02-14 06:11:00,
2013-02-14 01:22:00,64.0,-99.9,30.01,East,80,4.0,5.0,-999,-99.99,,,-99.99,,2013-02-14 06:22:00,
2013-02-14 01:32:00,63.0,-99.9,30.01,East,88,4.0,6.0,-999,-99.99,,,-99.99,,2013-02-14 06:32:00,
2013-02-14 01:42:00,64.0,-99.9,30.01,East,90,4.0,7.0,-999,-99.99,,,-99.99,,2013-02-14 06:42:00,
2013-02-14 01:52:00,64.0,-99.9,30.00,NE,52,4.0,6.0,-999,-99.99,,,-99.99,,2013-02-14 06:52:00,
2013-02-14 02:01:00,64.0,-99.9,30.00,NE,38,2.0,4.0,-999,-99.99,,,-99.99,,2013-02-14 07:01:00,
2013-02-14 02:11:00,64.0,-99.9,30.00,NNE,18,5.0,7.0,-999,-99.99,,,-99.99,,2013-02-14 07:11:00,
2013-02-14 02:22:00,64.0,-99.9,29.98,NNE,22,4.0,5.0,-999,-99.99,,,-99.99,,2013-02-14 07:22:00,
2013-02-14 02:32:00,64.0,-99.9,29.98,NNE,24,4.0,6.0,-999,-99.99,,,-99.99,,2013-02-14 07:32:00,
2013-02-14 02:42:00,64.0,-99.9,29.98,NE,47,3.0,4.0,-999,-99.99,,,-99.99,,2013-02-14 07:42:00,
2013-02-14 02:52:00,64.0,-99.9,29.98,NNE,31,2.0,4.0,-999,-99.99,,,-99.99,,2013-02-14 07:52:00,
2013-02-14 03:01:00,64.0,-99.9,29.99,NE,53,1.0,3.0,-999,-99.99,,,-99.99,,2013-02-14 08:01:00,
2013-02-14 03:11:00,64.0,-99.9,29.98,NE,47,2.0,2.0,-999,-99.99,,,-99.99,,2013-02-14 08:11:00,
2013-02-14 03:22:00,64.0,-99.9,29.98,East,82,3.0,4.0,-999,-99.99,,,-99.99,,2013-02-14 08:22:00,
2013-02-14 03:32:00,65.0,-99.9,29.98,ESE,117,4.0,6.0,-999,-99.99,,,-99.99,,2013-02-14 08:32:00,
2013-02-14 03:43:00,65.0,-99.9,29.98,ESE,113,3.0,5.0,-999,-99.99,,,-99.99,,2013-02-14 08:43:00,
2013-02-14 03:52:00,65.0,-99.9,29.97,East,94,2.0,4.0,-999,-99.99,,,-99.99,,2013-02-14 08:52:00,
2013-02-14 04:02:00,65.0,-99.9,29.98,NE,53,2.0,3.0,-999,-99.99,,,-99.99,,2013-02-14 09:02:00,
2013-02-14 04:11:00,65.0,-99.9,29.97,ENE,67,1.0,3.0,-999,-99.99,,,-99.99,,2013-02-14 09:11:00,
2013-02-14 04:22:00,65.0,-99.9,29.97,ENE,66,2.0,4.0,-999,-99.99,,,-99.99,,2013-02-14 09:22:00,
2013-02-14 04:32:00,65.0,-99.9,29.97,ESE,122,4.0,5.0,-999,-99.99,,,-99.99,,2013-02-14 09:32:00,
2013-02-14 04:42:00,65.0,-99.9,29.97,ESE,118,4.0,6.0,-999,-99.99,,,-99.99,,2013-02-14 09:42:00,
2013-02-14 04:52:00,65.0,-99.9,29.97,SE,124,5.0,6.0,-999,-99.99,,,-99.99,,2013-02-14 09:52:00,
2013-02-14 05:02:00,65.0,-99.9,29.97,East,89,2.0,3.0,-999,-99.99,,,-99.99,,2013-02-14 10:02:00,
2013-02-14 05:11:00,65.0,-99.9,29.97,East,92,2.0,3.0,-999,-99.99,,,-99.99,,2013-02-14 10:11:00,
2013-02-14 05:22:00,65.0,-99.9,29.96,ESE,109,2.0,5.0,-999,-99.99,,,-99.99,,2013-02-14 10:22:00,
2013-02-14 05:32:00,66.0,-99.9,29.96,East,80,3.0,6.0,-999,-99.99,,,-99.99,,2013-02-14 10:32:00,
2013-02-14 05:42:00,66.0,-99.9,29.96,East,81,3.0,4.0,-999,-99.99,,,-99.99,,2013-02-14 10:42:00,
2013-02-14 05:52:00,66.0,-99.9,29.96,NE,40,2.0,4.0,-999,-99.99,,,-99.99,,2013-02-14 10:52:00,
2013-02-14 06:02:00,66.0,-99.9,29.97,NE,53,2.0,5.0,-999,-99.99,,,-99.99,,2013-02-14 11:02:00,
2013-02-14 06:11:00,66.0,-99.9,29.98,North,8,3.0,4.0,-999,-99.99,,,-99.99,,2013-02-14 11:11:00,
2013-02-14 06:22:00,64.0,-99.9,29.98,NNW,347,4.0,6.0,-999,-99.99,,,-99.99,,2013-02-14 11:22:00,
2013-02-14 06:32:00,64.0,-99.9,29.98,NW,323,2.0,4.0,-999,-99.99,,,-99.99,,2013-02-14 11:32:00,
2013-02-14 06:42:00,64.0,-99.9,29.99,WNW,300,4.0,4.0,-999,-99.99,,,-99.99,,2013-02-14 11:42:00,
2013-02-14 06:52:00,64.0,-99.9,29.99,NNW,336,2.0,3.0,-999,-99.99,,,-99.99,,2013-02-14 11:52:00,
2013-02-14 07:02:00,64.0,-99.9,30.00,NW,310,3.0,4.0,-999,-99.99,,,-99.99,,2013-02-14 12:02:00,
2013-02-14 07:12:00,64.0,-99.9,30.01,NW,308,1.0,4.0,-999,-99.99,,,-99.99,,2013-02-14 12:12:00,
2013-02-14 07:22:00,64.0,-99.9,30.01,North,1,0.0,2.0,-999,-99.99,,,-99.99,,2013-02-14 12:22:00,
2013-02-14 07:32:00,64.0,-99.9,30.01,NE,47,1.0,2.0,-999,-99.99,,,-99.99,,2013-02-14 12:32:00,
2013-02-14 07:42:00,65.0,-99.9,30.01,ENE,58,0.0,2.0,-999,-99.99,,,-99.99,,2013-02-14 12:42:00,
2013-02-14 07:53:00,65.0,-99.9,30.01,NE,35,1.0,3.0,-999,-99.99,,,-99.99,,2013-02-14 12:53:00,
2013-02-14 08:02:00,65.0,-99.9,30.01,North,353,0.0,2.0,-999,-99.99,,,-99.99,,2013-02-14 13:02:00,
2013-02-14 08:11:00,65.0,-99.9,30.01,NNE,32,1.0,2.0,-999,-99.99,,,-99.99,,2013-02-14 13:11:00,
2013-02-14 08:21:00,65.0,-99.9,30.02,East,81,2.0,2.0,-999,-99.99,,,-99.99,,2013-02-14 13:21:00,
2013-02-14 08:32:00,63.0,-99.9,30.03,NW,322,2.0,3.0,-999,-99.99,,,-99.99,,2013-02-14 13:32:00,
2013-02-14 08:42:00,63.0,-99.9,30.03,ENE,68,1.0,3.0,-999,-99.99,,,-99.99,,2013-02-14 13:42:00,
2013-02-14 08:52:00,64.0,-99.9,30.03,East,82,2.0,3.0,-999,-99.99,,,-99.99,,2013-02-14 13:52:00,
2013-02-14 09:01:00,64.0,-99.9,30.03,NE,55,-999.0,2.0,-999,-99.99,,,-99.99,,2013-02-14 14:01:00,
2013-02-14 09:11:00,64.0,-99.9,30.02,ENE,57,4.0,5.0,-999,-99.99,,,-99.99,,2013-02-14 14:11:00,
2013-02-14 09:22:00,64.0,-99.9,30.03,NE,45,3.0,6.0,-999,-99.99,,,-99.99,,2013-02-14 14:22:00,
2013-02-14 09:32:00,64.0,-99.9,30.04,NNE,19,5.0,7.0,-999,-99.99,,,-99.99,,2013-02-14 14:32:00,
2013-02-14 09:42:00,65.0,-99.9,30.04,North,6,5.0,7.0,-999,-99.99,,,-99.99,,2013-02-14 14:42:00,
2013-02-14 09:52:00,64.0,-99.9,30.05,North,351,6.0,9.0,-999,-99.99,,,-99.99,,2013-02-14 14:52:00,
2013-02-14 10:02:00,64.0,-99.9,30.06,North,357,6.0,9.0,-999,-99.99,,,-99.99,,2013-02-14 15:02:00,
2013-02-14 10:11:00,65.0,-99.9,30.06,North,357,6.0,10.0,-999,-99.99,,,-99.99,,2013-02-14 15:11:00,
2013-02-14 10:22:00,65.0,-99.9,30.06,North,350,5.0,8.0,-999,-99.99,,,-99.99,,2013-02-14 15:22:00,
2013-02-14 10:32:00,65.0,-99.9,30.05,North,357,7.0,10.0,-999,-99.99,,,-99.99,,2013-02-14 15:32:00,
2013-02-14 10:42:00,65.0,-99.9,30.06,NNW,346,8.0,11.0,-999,-99.99,,,-99.99,,2013-02-14 15:42:00,
2013-02-14 10:52:00,65.0,-99.9,30.06,North,353,7.0,13.0,-999,-99.99,,,-99.99,,2013-02-14 15:52:00,
2013-02-14 11:02:00,65.0,-99.9,30.06,North,353,7.0,13.0,-999,-99.99,,,-99.99,,2013-02-14 16:02:00,
2013-02-14 11:11:00,-999.0,-99.9,30.06,NNW,347,13.0,16.0,-999,-99.99,,,-99.99,,2013-02-14 16:11:00,
2013-02-14 11:22:00,63.0,-99.9,30.07,North,-999,-999.0,-999.0,-999,-99.99,,,-99.99,,2013-02-14 16:22:00,
2013-02-14 11:32:00,-999.0,-99.9,30.08,North,349,11.0,16.0,-999,-99.99,,,-99.99,,2013-02-14 16:32:00,
2013-02-14 11:42:00,-999.0,-99.9,30.07,North,354,9.0,17.0,-999,-99.99,,,-99.99,,2013-02-14 16:42:00,
2013-02-14 11:52:00,62.0,-99.9,30.07,North,-999,-999.0,-999.0,-999,-99.99,,,-99.99,,2013-02-14 16:52:00,
2013-02-14 12:01:00,-999.0,-99.9,30.07,NNW,343,10.0,16.0,-999,-99.99,,,-99.99,,2013-02-14 17:01:00,
2013-02-14 12:22:00,-999.0,-99.9,30.07,NNW,338,10.0,14.0,-999,-99.99,,,-99.99,,2013-02-14 17:22:00,
2013-02-14 12:42:00,-999.0,-99.9,30.07,NNW,341,11.0,14.0,-999,-99.99,,,-99.99,,2013-02-14 17:42:00,
2013-02-14 12:52:00,-999.0,-99.9,30.07,North,353,10.0,13.0,-999,-99.99,,,-99.99,,2013-02-14 17:52:00,
2013-02-14 13:23:00,-999.0,-99.9,30.04,North,1,9.0,14.0,-999,-99.99,,,-99.99,,2013-02-14 18:23:00,
2013-02-14 13:32:00,-999.0,-99.9,30.04,North,2,5.0,8.0,-999,-99.99,,,-99.99,,2013-02-14 18:32:00,
2013-02-14 13:42:00,62.0,-99.9,30.04,North,-999,-999.0,-999.0,-999,-99.99,,,-99.99,,2013-02-14 18:42:00,
2013-02-14 13:52:00,-999.0,-99.9,30.02,NNE,31,3.0,7.0,-999,-99.99,,,-99.99,,2013-02-14 18:52:00,
2013-02-14 14:22:00,62.0,-99.9,30.01,North,-999,-999.0,-999.0,-999,-99.99,,,-99.99,,2013-02-14 19:22:00,
2013-02-14 14:42:00,62.0,-99.9,30.00,North,-999,-999.0,-999.0,-999,-99.99,,,-99.99,,2013-02-14 19:42:00,
2013-02-14 14:52:00,62.0,-99.9,30.00,North,-999,-999.0,-999.0,-999,-99.99,,,-99.99,,2013-02-14 19:52:00,
2013-02-14 15:01:00,63.0,-99.9,30.00,North,-999,-999.0,-999.0,-999,-99.99,,,-99.99,,2013-02-14 20:01:00,
2013-02-14 15:22:00,-999.0,-99.9,30.01,North,0,3.0,6.0,-999,-99.99,,,-99.99,,2013-02-14 20:22:00,
2013-02-14 15:32:00,63.0,-99.9,30.01,North,-999,-999.0,-999.0,-999,-99.99,,,-99.99,,2013-02-14 20:32:00,
2013-02-14 15:42:00,-999.0,-99.9,30.01,North,6,4.0,5.0,-999,-99.99,,,-99.99,,2013-02-14 20:42:00,
2013-02-14 15:52:00,62.0,-99.9,30.01,North,-999,-999.0,-999.0,-999,-99.99,,,-99.99,,2013-02-14 20:52:00,
2013-02-14 16:11:00,-999.0,-99.9,29.99,NE,36,3.0,5.0,-999,-99.99,,,-99.99,,2013-02-14 21:11:00,
2013-02-14 16:22:00,-999.0,-99.9,30.00,NE,42,2.0,4.0,-999,-99.99,,,-99.99,,2013-02-14 21:22:00,
2013-02-14 16:32:00,62.0,-99.9,30.00,North,-999,-999.0,-999.0,-999,-99.99,,,-99.99,,2013-02-14 21:32:00,
2013-02-14 16:42:00,63.0,-99.9,30.01,North,-999,-999.0,-999.0,-999,-99.99,,,-99.99,,2013-02-14 21:42:00,
2013-02-14 16:52:00,-999.0,-99.9,30.01,NNW,345,5.0,6.0,-999,-99.99,,,-99.99,,2013-02-14 21:52:00,
2013-02-14 17:02:00,-999.0,-99.9,30.02,North,349,2.0,5.0,-999,-99.99,,,-99.99,,2013-02-14 22:02:00,
2013-02-14 17:21:00,-999.0,-99.9,30.02,North,357,3.0,4.0,-999,-99.99,,,-99.99,,2013-02-14 22:21:00,
2013-02-14 17:42:00,-999.0,-99.9,30.01,NNE,13,3.0,5.0,-999,-99.99,,,-99.99,,2013-02-14 22:42:00,
2013-02-14 17:52:00,62.0,-99.9,30.01,North,-999,-999.0,-999.0,-999,-99.99,,,-99.99,,2013-02-14 22:52:00,
2013-02-14 18:01:00,-999.0,-99.9,30.01,North,356,6.0,8.0,-999,-99.99,,,-99.99,,2013-02-14 23:01:00,
2013-02-14 18:22:00,-999.0,-99.9,30.02,NNW,337,8.0,11.0,-999,-99.99,,,-99.99,,2013-02-14 23:22:00,
2013-02-14 18:32:00,-999.0,-99.9,30.02,NNW,347,6.0,10.0,-999,-99.99,,,-99.99,,2013-02-14 23:32:00,
2013-02-14 18:42:00,61.0,-99.9,30.03,North,-999,-999.0,-999.0,-999,-99.99,,,-99.99,,2013-02-14 23:42:00,
2013-02-14 18:52:00,61.0,-99.9,30.05,North,-999,-999.0,-999.0,-999,-99.99,,,-99.99,,2013-02-14 23:52:00,
2013-02-14 19:22:00,60.0,-99.9,30.05,North,-999,-999.0,-999.0,-999,-99.99,,,-99.99,,2013-02-15 00:22:00,
2013-02-14 19:32:00,60.0,-99.9,30.05,North,-999,-999.0,-999.0,-999,-99.99,,,-99.99,,2013-02-15 00:32:00,
2013-02-14 19:42:00,-999.0,-99.9,30.05,North,351,6.0,10.0,-999,-99.99,,,-99.99,,2013-02-15 00:42:00,
2013-02-14 19:52:00,-999.0,-99.9,30.04,North,10,4.0,9.0,-999,-99.99,,,-99.99,,2013-02-15 00:52:00,
2013-02-14 20:02:00,-999.0,-99.9,30.05,North,9,5.0,6.0,-999,-99.99,,,-99.99,,2013-02-15 01:02:00,
2013-02-14 20:22:00,61.0,-99.9,30.04,North,-999,-999.0,-999.0,-999,-99.99,,,-99.99,,2013-02-15 01:22:00,
2013-02-14 20:42:00,-999.0,-99.9,30.05,NE,45,5.0,9.0,-999,-99.99,,,-99.99,,2013-02-15 01:42:00,
2013-02-14 20:52:00,-999.0,-99.9,30.05,NE,55,7.0,10.0,-999,-99.99,,,-99.99,,2013-02-15 01:52:00,
2013-02-14 21:01:00,61.0,-99.9,30.06,North,-999,-999.0,-999.0,-999,-99.99,,,-99.99,,2013-02-15 02:01:00,
2013-02-14 21:21:00,61.0,-99.9,30.06,North,-999,-999.0,-999.0,-999,-99.99,,,-99.99,,2013-02-15 02:21:00,
2013-02-14 21:32:00,62.0,-99.9,30.04,North,-999,-999.0,-999.0,-999,-99.99,,,-99.99,,2013-02-15 02:32:00,
2013-02-14 21:42:00,-999.0,-99.9,30.04,ESE,112,5.0,7.0,-999,-99.99,,,-99.99,,2013-02-15 02:42:00,
2013-02-14 21:52:00,63.0,-99.9,30.03,North,-999,-999.0,-999.0,-999,-99.99,,,-99.99,,2013-02-15 02:52:00,
2013-02-14 22:02:00,-999.0,-99.9,30.03,ESE,123,8.0,13.0,-999,-99.99,,,-99.99,,2013-02-15 03:02:00,
2013-02-14 22:11:00,-999.0,-99.9,30.03,ESE,123,8.0,13.0,-999,-99.99,,,-99.99,,2013-02-15 03:11:00,
2013-02-14 22:22:00,-999.0,-99.9,30.06,SSE,152,9.0,11.0,-999,-99.99,,,-99.99,,2013-02-15 03:22:00,
2013-02-14 22:32:00,62.0,-99.9,30.07,North,-999,-999.0,-999.0,-999,-99.99,,,-99.99,,2013-02-15 03:32:00,
2013-02-14 22:42:00,-999.0,-99.9,30.07,NNW,333,4.0,5.0,-999,-99.99,,,-99.99,,2013-02-15 03:42:00,
2013-02-14 22:52:00,-999.0,-99.9,30.06,NNW,331,5.0,7.0,-999,-99.99,,,-99.99,,2013-02-15 03:52:00,
2013-02-14 23:02:00,61.0,-99.9,30.07,North,-999,-999.0,-999.0,-999,-99.99,,,-99.99,,2013-02-15 04:02:00,
2013-02-14 23:22:00,61.0,-99.9,30.04,North,-999,-999.0,-999.0,-999,-99.99,,,-99.99,,2013-02-15 04:22:00,
2013-02-14 23:42:00,-999.0,-99.9,30.02,SSE,149,10.0,11.0,-999,-99.99,,,-99.99,,2013-02-15 04:42:00,
2013-02-14 23:52:00,-999.0,-99.9,30.02,SSE,156,9.0,10.0,-999,-99.99,,,-99.99,,2013-02-15 04:52:00,